createdAt,value
2019-02-06T00:00:05.620Z,82.08
2019-02-06T00:01:05.610Z,82.08
2019-02-06T00:02:05.602Z,81.87
2019-02-06T00:03:05.588Z,81.77
2019-02-06T00:04:05.578Z,81.25
2019-02-06T00:05:13.928Z,82.18
2019-02-06T00:06:06.562Z,81.67
2019-02-06T00:07:05.552Z,81.67
2019-02-06T00:08:05.534Z,81.77
2019-02-06T00:09:05.523Z,81.77
2019-02-06T00:10:05.517Z,81.67
2019-02-06T00:11:05.520Z,81.87
2019-02-06T00:12:05.546Z,81.87
2019-02-06T00:13:05.498Z,81.98
2019-02-06T00:14:05.506Z,81.56
2019-02-06T00:15:05.462Z,81.87
2019-02-06T00:16:05.454Z,81.77
2019-02-06T00:17:05.446Z,81.67
2019-02-06T00:18:05.478Z,81.67
2019-02-06T00:19:05.418Z,81.35
2019-02-06T00:20:05.412Z,81.67
2019-02-06T00:21:05.400Z,81.46
2019-02-06T00:22:05.393Z,81.35
2019-02-06T00:23:05.383Z,81.56
2019-02-06T00:24:05.368Z,80.94
2019-02-06T00:25:05.355Z,81.04
2019-02-06T00:26:05.348Z,81.35
2019-02-06T00:27:05.330Z,81.67
2019-02-06T00:28:05.328Z,81.77
2019-02-06T00:29:05.322Z,81.56
2019-02-06T00:30:05.317Z,81.25
2019-02-06T00:31:05.335Z,81.56
2019-02-06T00:32:05.280Z,81.56
2019-02-06T00:33:05.271Z,81.56
2019-02-06T00:34:05.262Z,81.15
2019-02-06T00:35:05.260Z,81.15
2019-02-06T00:36:05.270Z,80.94
2019-02-06T00:37:05.232Z,81.46
2019-02-06T00:38:05.656Z,81.56
2019-02-06T00:39:05.212Z,81.67
2019-02-06T00:40:05.199Z,81.49
2019-02-06T00:41:05.208Z,81.46
2019-02-06T00:42:05.176Z,81.77
2019-02-06T00:43:05.166Z,81.35
2019-02-06T00:44:05.154Z,80.94
2019-02-06T00:45:05.175Z,81.25
2019-02-06T00:46:05.140Z,81.35
2019-02-06T00:47:05.142Z,81.15
2019-02-06T00:48:05.114Z,81.15
2019-02-06T00:49:05.102Z,81.25
2019-02-06T00:50:05.094Z,81.15
2019-02-06T00:51:05.102Z,81.15
2019-02-06T00:52:05.080Z,80.83
2019-02-06T00:53:05.080Z,81.25
2019-02-06T00:54:05.050Z,81.25
2019-02-06T00:55:05.038Z,81.15
2019-02-06T00:56:05.042Z,81.46
2019-02-06T00:57:05.014Z,81.18
2019-02-06T00:58:05.020Z,80.63
2019-02-06T00:59:05.024Z,80.73
2019-02-06T01:00:04.983Z,80.73
2019-02-06T01:01:04.974Z,80.87
2019-02-06T01:02:04.969Z,80.98
2019-02-06T01:03:04.950Z,80.77
2019-02-06T01:04:04.964Z,80.63
2019-02-06T01:05:04.931Z,80.87
2019-02-06T01:06:04.926Z,80.83
2019-02-06T01:07:04.912Z,80.94
2019-02-06T01:08:04.904Z,80.94
2019-02-06T01:09:04.892Z,80.56
2019-02-06T01:10:04.899Z,80.77
2019-02-06T01:11:04.913Z,81.18
2019-02-06T01:12:04.866Z,80.94
2019-02-06T01:13:04.846Z,80.98
2019-02-06T01:14:04.848Z,80.77
2019-02-06T01:15:04.832Z,81.29
2019-02-06T01:16:04.836Z,80.87
2019-02-06T01:17:04.800Z,81.29
2019-02-06T01:18:04.794Z,80.77
2019-02-06T01:19:04.784Z,80.63
2019-02-06T01:20:04.775Z,80.77
2019-02-06T01:21:04.776Z,80.66
2019-02-06T01:22:04.766Z,80.73
2019-02-06T01:23:04.741Z,80.56
2019-02-06T01:24:04.730Z,80.46
2019-02-06T01:25:04.724Z,80.73
2019-02-06T01:26:04.714Z,80.77
2019-02-06T01:27:04.701Z,80.35
2019-02-06T01:28:04.702Z,79.83
2019-02-06T01:29:04.682Z,79.94
2019-02-06T01:30:04.664Z,79.83
2019-02-06T01:31:04.652Z,79.90
2019-02-06T01:32:04.652Z,80.25
2019-02-06T01:33:04.646Z,80.77
2019-02-06T01:34:04.654Z,80.63
2019-02-06T01:35:04.618Z,80.66
2019-02-06T01:36:04.598Z,80.46
2019-02-06T01:37:04.589Z,79.83
2019-02-06T01:38:04.595Z,79.94
2019-02-06T01:39:04.586Z,79.62
2019-02-06T01:40:04.570Z,79.72
2019-02-06T01:41:04.548Z,79.41
2019-02-06T01:42:04.538Z,79.27
2019-02-06T01:43:04.533Z,79.52
2019-02-06T01:44:04.520Z,79.52
2019-02-06T01:45:04.520Z,79.31
2019-02-06T01:46:04.761Z,79.21
2019-02-06T01:47:04.488Z,79.21
2019-02-06T01:48:04.480Z,79.41
2019-02-06T01:49:04.474Z,79.62
2019-02-06T01:50:04.476Z,79.38
2019-02-06T01:51:04.447Z,79.38
2019-02-06T01:52:04.434Z,79.80
2019-02-06T01:53:04.425Z,79.48
2019-02-06T01:54:04.411Z,79.41
2019-02-06T01:55:04.405Z,79.41
2019-02-06T01:56:04.408Z,79.21
2019-02-06T01:57:04.390Z,79.10
2019-02-06T01:58:04.368Z,79.06
2019-02-06T01:59:04.354Z,79.21
2019-02-06T02:00:04.344Z,79.00
2019-02-06T02:01:04.352Z,78.89
2019-02-06T02:02:04.323Z,79.10
2019-02-06T02:03:04.323Z,79.10
2019-02-06T02:04:04.305Z,79.31
2019-02-06T02:05:04.298Z,79.21
2019-02-06T02:06:04.289Z,79.31
2019-02-06T02:07:04.276Z,79.21
2019-02-06T02:08:04.261Z,79.48
2019-02-06T02:09:04.248Z,78.79
2019-02-06T02:10:04.247Z,79.00
2019-02-06T02:11:04.228Z,79.00
2019-02-06T02:12:04.221Z,78.89
2019-02-06T02:13:04.217Z,78.89
2019-02-06T02:14:04.198Z,79.00
2019-02-06T02:15:04.192Z,79.21
2019-02-06T02:16:04.174Z,78.79
2019-02-06T02:17:04.169Z,78.89
2019-02-06T02:18:04.157Z,78.93
2019-02-06T02:19:04.165Z,78.69
2019-02-06T02:20:04.129Z,78.41
2019-02-06T02:21:04.124Z,78.79
2019-02-06T02:22:04.112Z,78.72
2019-02-06T02:23:04.105Z,78.79
2019-02-06T02:24:04.094Z,78.79
2019-02-06T02:25:04.090Z,79.00
2019-02-06T02:26:04.068Z,78.41
2019-02-06T02:27:04.058Z,78.38
2019-02-06T02:28:04.058Z,78.27
2019-02-06T02:29:04.043Z,79.03
2019-02-06T02:30:04.035Z,78.79
2019-02-06T02:31:04.015Z,79.10
2019-02-06T02:32:04.010Z,78.79
2019-02-06T02:33:04.000Z,79.00
2019-02-06T02:34:03.985Z,78.58
2019-02-06T02:35:03.978Z,77.96
2019-02-06T02:36:15.160Z,78.17
2019-02-06T02:37:04.954Z,78.58
2019-02-06T02:38:03.948Z,78.27
2019-02-06T02:39:03.946Z,78.58
2019-02-06T02:40:03.926Z,78.69
2019-02-06T02:41:03.912Z,77.96
2019-02-06T02:42:03.898Z,77.44
2019-02-06T02:43:03.891Z,77.03
2019-02-06T02:44:03.881Z,77.23
2019-02-06T02:45:03.884Z,77.65
2019-02-06T02:46:03.856Z,77.40
2019-02-06T02:47:03.852Z,77.44
2019-02-06T02:48:03.838Z,77.44
2019-02-06T02:49:03.824Z,76.89
2019-02-06T02:50:03.821Z,76.89
2019-02-06T02:51:03.806Z,77.03
2019-02-06T02:52:03.800Z,77.13
2019-02-06T02:53:03.794Z,77.09
2019-02-06T02:54:03.772Z,77.34
2019-02-06T02:55:03.764Z,77.03
2019-02-06T02:56:03.754Z,76.92
2019-02-06T02:57:03.749Z,76.92
2019-02-06T02:58:03.731Z,77.34
2019-02-06T02:59:03.720Z,77.03
2019-02-06T03:00:03.710Z,76.89
2019-02-06T03:01:03.700Z,77.13
2019-02-06T03:02:03.692Z,76.89
2019-02-06T03:03:03.680Z,77.30
2019-02-06T03:04:03.670Z,77.23
2019-02-06T03:05:03.654Z,76.89
2019-02-06T03:06:03.653Z,77.09
2019-02-06T03:07:03.648Z,76.16
2019-02-06T03:08:03.636Z,76.16
2019-02-06T03:09:03.614Z,76.82
2019-02-06T03:10:03.610Z,76.78
2019-02-06T03:11:03.596Z,76.89
2019-02-06T03:12:03.585Z,77.34
2019-02-06T03:13:03.574Z,76.99
2019-02-06T03:14:03.558Z,77.23
2019-02-06T03:15:03.553Z,76.92
2019-02-06T03:16:03.545Z,77.20
2019-02-06T03:17:03.599Z,77.23
2019-02-06T03:18:03.522Z,77.30
2019-02-06T03:19:03.506Z,77.20
2019-02-06T03:20:03.501Z,77.03
2019-02-06T03:21:03.510Z,77.30
2019-02-06T03:22:03.475Z,77.09
2019-02-06T03:23:03.463Z,76.57
2019-02-06T03:24:03.456Z,76.09
2019-02-06T03:25:03.444Z,76.89
2019-02-06T03:26:03.436Z,76.92
2019-02-06T03:27:03.428Z,77.20
2019-02-06T03:28:03.416Z,77.55
2019-02-06T03:29:03.400Z,77.23
2019-02-06T03:30:03.410Z,77.34
2019-02-06T03:31:03.377Z,77.44
2019-02-06T03:32:03.373Z,77.34
2019-02-06T03:33:03.386Z,77.55
2019-02-06T03:34:05.015Z,77.51
2019-02-06T03:35:03.332Z,77.75
2019-02-06T03:36:03.332Z,77.55
2019-02-06T03:37:03.315Z,78.06
2019-02-06T03:38:03.308Z,78.17
2019-02-06T03:39:03.291Z,78.69
2019-02-06T03:40:03.286Z,78.58
2019-02-06T03:41:03.272Z,78.48
2019-02-06T03:42:03.266Z,78.27
2019-02-06T03:43:03.260Z,78.17
2019-02-06T03:44:03.261Z,78.27
2019-02-06T03:45:03.227Z,78.27
2019-02-06T03:46:03.223Z,78.48
2019-02-06T03:47:03.209Z,78.17
2019-02-06T03:48:03.214Z,78.38
2019-02-06T03:49:03.195Z,78.79
2019-02-06T03:50:03.198Z,78.79
2019-02-06T03:51:03.167Z,78.89
2019-02-06T03:52:03.164Z,78.83
2019-02-06T03:53:03.144Z,79.00
2019-02-06T03:54:03.136Z,78.79
2019-02-06T03:55:03.127Z,79.35
2019-02-06T03:56:03.129Z,79.21
2019-02-06T03:57:03.102Z,79.35
2019-02-06T03:58:03.098Z,79.41
2019-02-06T03:59:03.082Z,80.04
2019-02-06T04:00:03.069Z,79.72
2019-02-06T04:01:03.062Z,80.08
2019-02-06T04:02:03.052Z,81.01
2019-02-06T04:03:03.046Z,80.70
2019-02-06T04:04:03.040Z,81.32
2019-02-06T04:05:03.027Z,81.22
2019-02-06T04:06:03.011Z,81.01
2019-02-06T04:07:03.002Z,81.53
2019-02-06T04:08:02.990Z,81.74
2019-02-06T04:09:02.972Z,81.63
2019-02-06T04:10:02.966Z,81.84
2019-02-06T04:11:02.954Z,82.05
2019-02-06T04:12:02.949Z,82.36
2019-02-06T04:13:02.942Z,82.57
2019-02-06T04:14:02.927Z,82.57
2019-02-06T04:15:02.917Z,82.89
2019-02-06T04:16:02.904Z,83.09
2019-02-06T04:17:02.889Z,83.40
2019-02-06T04:18:02.892Z,83.72
2019-02-06T04:19:02.880Z,83.86
2019-02-06T04:20:02.857Z,83.96
2019-02-06T04:21:02.846Z,83.86
2019-02-06T04:22:02.842Z,84.23
2019-02-06T04:23:02.822Z,84.38
2019-02-06T04:24:02.824Z,84.38
2019-02-06T04:25:02.813Z,84.27
2019-02-06T04:26:02.798Z,84.48
2019-02-06T04:27:02.794Z,84.69
2019-02-06T04:28:02.791Z,84.59
2019-02-06T04:29:02.770Z,84.80
2019-02-06T04:30:02.760Z,85.00
2019-02-06T04:31:02.772Z,85.21
2019-02-06T04:32:02.731Z,84.94
2019-02-06T04:33:02.725Z,85.31
2019-02-06T04:34:02.710Z,85.88
2019-02-06T04:35:02.710Z,85.63
2019-02-06T04:36:02.702Z,85.77
2019-02-06T04:37:06.648Z,85.94
2019-02-06T04:38:02.678Z,86.19
2019-02-06T04:39:02.655Z,86.19
2019-02-06T04:40:02.645Z,86.40
2019-02-06T04:41:02.640Z,86.29
2019-02-06T04:42:02.624Z,86.91
2019-02-06T04:43:02.627Z,87.43
2019-02-06T04:44:02.603Z,87.43
2019-02-06T04:45:02.603Z,86.81
2019-02-06T04:46:02.580Z,87.02
2019-02-06T04:47:02.570Z,87.02
2019-02-06T04:48:02.558Z,87.54
2019-02-06T04:49:02.544Z,87.68
2019-02-06T04:50:02.539Z,87.58
2019-02-06T04:51:02.524Z,87.27
2019-02-06T04:52:02.517Z,87.58
2019-02-06T04:53:02.501Z,87.89
2019-02-06T04:54:02.496Z,87.79
2019-02-06T04:55:02.486Z,88.93
2019-02-06T04:56:02.477Z,88.31
2019-02-06T04:57:02.462Z,88.52
2019-02-06T04:58:02.465Z,88.42
2019-02-06T04:59:02.444Z,89.14
2019-02-06T05:00:02.440Z,89.18
2019-02-06T05:01:02.416Z,89.08
2019-02-06T05:02:02.419Z,89.29
2019-02-06T05:03:02.400Z,88.98
2019-02-06T05:04:02.396Z,89.08
2019-02-06T05:05:02.379Z,89.18
2019-02-06T05:06:02.370Z,89.18
2019-02-06T05:07:02.354Z,88.98
2019-02-06T05:08:02.342Z,89.08
2019-02-06T05:09:02.349Z,89.29
2019-02-06T05:10:02.331Z,89.75
2019-02-06T05:11:02.310Z,89.85
2019-02-06T05:12:02.307Z,90.06
2019-02-06T05:13:02.291Z,90.06
2019-02-06T05:14:02.278Z,89.85
2019-02-06T05:15:02.284Z,90.58
2019-02-06T05:16:02.256Z,89.95
2019-02-06T05:17:02.249Z,90.37
2019-02-06T05:18:02.235Z,90.47
2019-02-06T05:19:02.234Z,90.58
2019-02-06T05:20:02.220Z,90.26
2019-02-06T05:21:02.214Z,90.72
2019-02-06T05:22:02.196Z,91.14
2019-02-06T05:23:02.188Z,91.25
2019-02-06T05:24:02.171Z,90.41
2019-02-06T05:25:02.163Z,91.35
2019-02-06T05:26:02.159Z,91.14
2019-02-06T05:27:02.136Z,91.77
2019-02-06T05:28:02.133Z,91.35
2019-02-06T05:29:02.118Z,91.77
2019-02-06T05:30:02.144Z,91.91
2019-02-06T05:31:02.105Z,91.91
2019-02-06T05:32:02.096Z,92.12
2019-02-06T05:33:02.076Z,92.54
2019-02-06T05:34:02.063Z,92.75
2019-02-06T05:35:02.058Z,92.54
2019-02-06T05:36:02.051Z,92.65
2019-02-06T05:37:02.041Z,92.54
2019-02-06T05:38:02.034Z,92.54
2019-02-06T05:39:02.008Z,92.58
2019-02-06T05:40:02.001Z,92.69
2019-02-06T05:41:01.991Z,92.69
2019-02-06T05:42:01.980Z,92.44
2019-02-06T05:43:01.966Z,92.65
2019-02-06T05:44:01.965Z,92.33
2019-02-06T05:45:01.944Z,92.58
2019-02-06T05:46:01.932Z,92.79
2019-02-06T05:47:01.933Z,92.65
2019-02-06T05:48:01.916Z,92.69
2019-02-06T05:49:01.913Z,92.37
2019-02-06T05:50:01.899Z,92.58
2019-02-06T05:51:01.886Z,92.69
2019-02-06T05:52:01.870Z,93.31
2019-02-06T05:53:01.870Z,93.00
2019-02-06T05:54:01.850Z,93.48
2019-02-06T05:55:04.491Z,93.31
2019-02-06T05:56:01.834Z,93.10
2019-02-06T05:57:01.820Z,93.31
2019-02-06T05:58:01.812Z,93.21
2019-02-06T05:59:01.798Z,93.31
2019-02-06T06:00:01.796Z,92.69
2019-02-06T06:01:01.782Z,92.90
2019-02-06T06:02:01.773Z,93.41
2019-02-06T06:03:01.759Z,93.31
2019-02-06T06:04:01.750Z,93.10
2019-02-06T06:05:01.741Z,93.73
2019-02-06T06:06:01.732Z,93.73
2019-02-06T06:07:01.714Z,93.84
2019-02-06T06:08:01.702Z,93.41
2019-02-06T06:09:01.688Z,93.41
2019-02-06T06:10:01.691Z,93.31
2019-02-06T06:11:01.681Z,93.41
2019-02-06T06:12:01.662Z,93.41
2019-02-06T06:13:01.650Z,93.67
2019-02-06T06:14:01.679Z,93.57
2019-02-06T06:15:01.653Z,93.52
2019-02-06T06:16:01.662Z,93.73
2019-02-06T06:17:01.611Z,93.57
2019-02-06T06:18:01.602Z,93.88
2019-02-06T06:19:01.589Z,93.67
2019-02-06T06:20:01.573Z,94.09
2019-02-06T06:21:01.569Z,94.40
2019-02-06T06:22:01.553Z,94.19
2019-02-06T06:23:01.815Z,93.77
2019-02-06T06:24:01.539Z,93.88
2019-02-06T06:25:01.527Z,94.71
2019-02-06T06:26:01.515Z,94.82
2019-02-06T06:27:01.502Z,94.61
2019-02-06T06:28:01.490Z,94.61
2019-02-06T06:29:01.490Z,94.50
2019-02-06T06:30:01.476Z,94.82
2019-02-06T06:31:01.465Z,94.82
2019-02-06T06:32:01.454Z,94.50
2019-02-06T06:33:01.438Z,94.29
2019-02-06T06:34:01.427Z,94.82
2019-02-06T06:35:01.419Z,94.34
2019-02-06T06:36:01.414Z,94.55
2019-02-06T06:37:01.399Z,94.55
2019-02-06T06:38:02.617Z,94.44
2019-02-06T06:39:01.384Z,94.82
2019-02-06T06:40:01.369Z,94.96
2019-02-06T06:41:01.358Z,94.23
2019-02-06T06:42:01.354Z,95.34
2019-02-06T06:43:01.464Z,94.92
2019-02-06T06:44:01.328Z,94.92
2019-02-06T06:45:01.309Z,94.82
2019-02-06T06:46:01.304Z,95.97
2019-02-06T06:47:01.288Z,95.97
2019-02-06T06:48:01.283Z,95.76
2019-02-06T06:49:01.270Z,95.61
2019-02-06T06:50:01.270Z,95.03
2019-02-06T06:51:01.244Z,94.57
2019-02-06T06:52:03.940Z,94.71
2019-02-06T06:53:01.231Z,93.98
2019-02-06T06:54:01.216Z,93.84
2019-02-06T06:55:01.210Z,93.88
2019-02-06T06:56:01.196Z,93.77
2019-02-06T06:57:01.342Z,93.77
2019-02-06T06:58:01.243Z,93.88
2019-02-06T06:59:01.166Z,93.67
2019-02-06T07:00:01.150Z,93.88
2019-02-06T07:01:01.142Z,95.23
2019-02-06T07:02:01.137Z,94.71
2019-02-06T07:03:01.128Z,94.71
2019-02-06T07:04:01.114Z,93.88
2019-02-06T07:05:01.099Z,93.67
2019-02-06T07:06:01.087Z,93.88
2019-02-06T07:07:01.070Z,93.98
2019-02-06T07:08:09.215Z,93.57
2019-02-06T07:09:02.060Z,94.92
2019-02-06T07:10:01.049Z,94.92
2019-02-06T07:11:01.032Z,93.88
2019-02-06T07:12:01.028Z,94.09
2019-02-06T07:13:01.013Z,93.52
2019-02-06T07:14:01.002Z,93.77
2019-02-06T07:15:01.001Z,93.77
2019-02-06T07:16:00.987Z,93.67
2019-02-06T07:17:00.971Z,93.52
2019-02-06T07:18:01.473Z,93.52
2019-02-06T07:19:01.090Z,93.63
2019-02-06T07:20:01.098Z,92.79
2019-02-06T07:21:01.755Z,93.00
2019-02-06T07:22:00.919Z,93.00
2019-02-06T07:23:00.910Z,92.90
2019-02-06T07:24:00.896Z,92.47
2019-02-06T07:25:00.917Z,92.44
2019-02-06T07:26:00.876Z,92.27
2019-02-06T07:27:00.864Z,92.37
2019-02-06T07:28:00.865Z,92.27
2019-02-06T07:29:00.851Z,92.79
2019-02-06T07:30:00.834Z,92.37
2019-02-06T07:31:00.821Z,92.27
2019-02-06T07:32:00.896Z,91.91
2019-02-06T07:33:00.804Z,91.64
2019-02-06T07:34:00.792Z,91.96
2019-02-06T07:35:00.789Z,92.47
2019-02-06T07:36:00.774Z,92.37
2019-02-06T07:37:00.760Z,92.27
2019-02-06T07:38:00.758Z,92.33
2019-02-06T07:39:00.748Z,92.12
2019-02-06T07:40:00.829Z,91.71
2019-02-06T07:41:00.716Z,91.43
2019-02-06T07:42:00.708Z,91.81
2019-02-06T07:43:00.696Z,91.43
2019-02-06T07:44:00.678Z,91.39
2019-02-06T07:45:00.691Z,90.56
2019-02-06T07:46:00.663Z,90.35
2019-02-06T07:47:00.649Z,90.66
2019-02-06T07:48:00.642Z,90.20
2019-02-06T07:49:00.630Z,90.00
2019-02-06T07:50:00.619Z,90.00
2019-02-06T07:51:00.624Z,89.26
2019-02-06T07:52:00.599Z,89.32
2019-02-06T07:53:00.588Z,87.62
2019-02-06T07:54:00.591Z,87.27
2019-02-06T07:55:00.580Z,85.98
2019-02-06T07:56:00.560Z,85.35
2019-02-06T07:57:00.543Z,84.38
2019-02-06T07:58:00.532Z,83.37
2019-02-06T07:59:00.936Z,81.67
2019-02-06T08:00:00.518Z,80.69
2019-02-06T08:01:00.539Z,79.93
2019-02-06T08:02:00.496Z,78.58
2019-02-06T08:03:00.941Z,79.20
2019-02-06T08:04:00.478Z,78.86
2019-02-06T08:05:00.453Z,78.44
2019-02-06T08:06:00.448Z,78.30
2019-02-06T08:07:00.432Z,78.65
2019-02-06T08:08:00.823Z,76.36
2019-02-06T08:09:00.411Z,74.60
2019-02-06T08:10:00.411Z,74.08
2019-02-06T08:11:02.907Z,73.08
2019-02-06T08:12:00.387Z,74.11
2019-02-06T08:13:00.371Z,75.05
2019-02-06T08:14:00.367Z,75.60
2019-02-06T08:15:00.377Z,75.29
2019-02-06T08:16:00.358Z,75.88
2019-02-06T08:17:00.334Z,75.74
2019-02-06T08:18:00.317Z,74.43
2019-02-06T08:19:00.304Z,77.09
2019-02-06T08:20:00.294Z,76.75
2019-02-06T08:21:00.282Z,75.92
2019-02-06T08:22:00.269Z,75.92
2019-02-06T08:23:00.329Z,76.81
2019-02-06T08:24:00.247Z,77.54
2019-02-06T08:25:00.325Z,77.02
2019-02-06T08:26:00.227Z,76.47
2019-02-06T08:27:00.228Z,77.02
2019-02-06T08:28:00.208Z,76.81
2019-02-06T08:29:00.199Z,76.64
2019-02-06T08:30:00.327Z,75.92
2019-02-06T08:31:00.173Z,75.36
2019-02-06T08:32:00.180Z,74.84
2019-02-06T08:33:00.200Z,74.29
2019-02-06T08:34:00.149Z,73.36
2019-02-06T08:35:00.348Z,74.11
2019-02-06T08:36:00.123Z,73.67
2019-02-06T08:37:00.116Z,73.11
2019-02-06T08:38:00.115Z,72.60
2019-02-06T08:39:00.090Z,72.60
2019-02-06T08:40:00.327Z,72.05
2019-02-06T08:41:00.064Z,70.47
2019-02-06T08:42:00.137Z,69.43
2019-02-06T08:43:00.044Z,68.19
2019-02-06T08:44:01.842Z,68.64
2019-02-06T08:45:00.046Z,69.19
2019-02-06T08:46:00.021Z,68.95
2019-02-06T08:46:59.998Z,67.65
2019-02-06T08:47:59.987Z,65.62
2019-02-06T08:48:59.978Z,63.84
2019-02-06T08:49:59.972Z,63.81
2019-02-06T08:51:00.124Z,62.90
2019-02-06T08:51:59.990Z,61.77
2019-02-06T08:52:59.930Z,61.74
2019-02-06T08:53:59.922Z,59.29
2019-02-06T08:54:59.914Z,59.06
2019-02-06T08:55:59.914Z,56.64
2019-02-06T08:56:59.901Z,56.95
2019-02-06T08:57:59.874Z,55.66
2019-02-06T08:58:59.871Z,53.97
2019-02-06T08:59:59.858Z,54.44
2019-02-06T09:00:59.844Z,54.59
2019-02-06T09:01:59.854Z,55.13
2019-02-06T09:02:59.824Z,55.38
2019-02-06T09:03:59.814Z,54.13
2019-02-06T09:04:59.923Z,54.92
2019-02-06T09:05:59.791Z,57.26
2019-02-06T09:06:59.789Z,57.13
2019-02-06T09:07:59.770Z,56.72
2019-02-06T09:09:00.209Z,58.42
2019-02-06T09:09:59.746Z,58.03
2019-02-06T09:10:59.740Z,57.62
2019-02-06T09:11:59.740Z,58.14
2019-02-06T09:12:59.732Z,59.31
2019-02-06T09:13:59.716Z,57.64
2019-02-06T09:14:59.695Z,56.10
2019-02-06T09:15:59.686Z,55.95
2019-02-06T09:16:59.669Z,55.95
2019-02-06T09:17:59.700Z,57.41
2019-02-06T09:18:59.670Z,56.15
2019-02-06T09:19:59.654Z,57.13
2019-02-06T09:20:59.644Z,56.74
2019-02-06T09:21:59.630Z,59.24
2019-02-06T09:22:59.658Z,60.31
2019-02-06T09:23:59.615Z,61.59
2019-02-06T09:24:59.584Z,60.56
2019-02-06T09:25:59.610Z,60.12
2019-02-06T09:26:59.567Z,60.46
2019-02-06T09:27:59.552Z,60.59
2019-02-06T09:28:59.545Z,60.87
2019-02-06T09:29:59.554Z,60.84
2019-02-06T09:30:59.533Z,59.42
2019-02-06T09:31:59.595Z,58.01
2019-02-06T09:32:59.506Z,58.42
2019-02-06T09:33:59.488Z,59.78
2019-02-06T09:34:59.481Z,60.02
2019-02-06T09:35:59.477Z,60.35
2019-02-06T09:36:59.456Z,61.52
2019-02-06T09:37:59.443Z,62.21
2019-02-06T09:39:10.876Z,61.85
2019-02-06T09:40:00.427Z,61.90
2019-02-06T09:40:59.417Z,61.25
2019-02-06T09:41:59.426Z,61.61
2019-02-06T09:42:59.389Z,62.00
2019-02-06T09:43:59.439Z,61.18
2019-02-06T09:44:59.393Z,61.49
2019-02-06T09:45:59.363Z,61.80
2019-02-06T09:46:59.365Z,61.96
2019-02-06T09:47:59.346Z,63.22
2019-02-06T09:48:59.326Z,63.09
2019-02-06T09:49:59.318Z,63.69
2019-02-06T09:50:59.302Z,65.72
2019-02-06T09:51:59.300Z,66.44
2019-02-06T09:52:59.293Z,66.44
2019-02-06T09:53:59.307Z,66.44
2019-02-06T09:54:59.260Z,66.93
2019-02-06T09:55:59.248Z,67.37
2019-02-06T09:56:59.246Z,67.24
2019-02-06T09:57:59.232Z,67.68
2019-02-06T09:58:59.290Z,67.68
2019-02-06T09:59:59.236Z,67.58
2019-02-06T10:00:59.208Z,67.71
2019-02-06T10:01:59.185Z,68.88
2019-02-06T10:02:59.173Z,69.32
2019-02-06T10:03:59.168Z,69.53
2019-02-06T10:04:59.171Z,69.87
2019-02-06T10:05:59.144Z,70.47
2019-02-06T10:06:59.130Z,69.95
2019-02-06T10:07:59.118Z,70.01
2019-02-06T10:08:59.103Z,69.40
2019-02-06T10:09:59.097Z,69.29
2019-02-06T10:10:59.113Z,69.26
2019-02-06T10:11:59.076Z,68.67
2019-02-06T10:12:59.064Z,68.67
2019-02-06T10:13:59.073Z,69.16
2019-02-06T10:14:59.046Z,68.88
2019-02-06T10:15:59.042Z,69.12
2019-02-06T10:16:59.026Z,68.95
2019-02-06T10:17:59.016Z,68.77
2019-02-06T10:18:59.001Z,68.98
2019-02-06T10:19:58.991Z,68.88
2019-02-06T10:20:59.052Z,69.40
2019-02-06T10:21:59.008Z,68.88
2019-02-06T10:22:58.971Z,67.61
2019-02-06T10:23:59.000Z,68.15
2019-02-06T10:24:59.124Z,67.61
2019-02-06T10:25:59.079Z,67.37
2019-02-06T10:26:58.917Z,67.44
2019-02-06T10:27:58.933Z,65.58
2019-02-06T10:28:58.890Z,65.76
2019-02-06T10:29:58.883Z,65.42
2019-02-06T10:30:58.887Z,64.15
2019-02-06T10:31:58.863Z,63.95
2019-02-06T10:32:58.859Z,63.32
2019-02-06T10:33:58.836Z,63.53
2019-02-06T10:34:58.823Z,63.74
2019-02-06T10:35:58.814Z,64.04
2019-02-06T10:36:58.803Z,63.40
2019-02-06T10:37:58.797Z,63.64
2019-02-06T10:38:58.796Z,63.64
2019-02-06T10:39:58.875Z,65.42
2019-02-06T10:40:58.760Z,64.90
2019-02-06T10:41:58.752Z,64.46
2019-02-06T10:42:58.842Z,64.56
2019-02-06T10:43:58.758Z,62.99
2019-02-06T10:44:58.747Z,63.19
2019-02-06T10:45:58.708Z,62.68
2019-02-06T10:46:58.723Z,62.31
2019-02-06T10:47:58.682Z,62.62
2019-02-06T10:48:58.681Z,61.38
2019-02-06T10:49:58.667Z,61.82
2019-02-06T10:50:58.659Z,61.49
2019-02-06T10:51:58.643Z,61.31
2019-02-06T10:52:58.632Z,61.72
2019-02-06T10:53:58.619Z,62.99
2019-02-06T10:54:58.612Z,63.32
2019-02-06T10:55:58.598Z,64.25
2019-02-06T10:56:58.593Z,64.15
2019-02-06T10:57:58.574Z,64.04
2019-02-06T10:58:58.572Z,63.99
2019-02-06T10:59:58.557Z,63.19
2019-02-06T11:00:58.559Z,63.32
2019-02-06T11:01:58.539Z,62.99
2019-02-06T11:02:58.571Z,62.99
2019-02-06T11:03:58.505Z,63.37
2019-02-06T11:04:58.503Z,62.85
2019-02-06T11:05:58.519Z,62.93
2019-02-06T11:06:58.473Z,62.72
2019-02-06T11:07:58.467Z,61.90
2019-02-06T11:08:58.455Z,62.93
2019-02-06T11:09:58.484Z,61.61
2019-02-06T11:10:58.433Z,62.82
2019-02-06T11:11:58.432Z,62.07
2019-02-06T11:12:58.461Z,61.98
2019-02-06T11:13:58.415Z,61.69
2019-02-06T11:14:58.418Z,61.82
2019-02-06T11:15:58.403Z,62.37
2019-02-06T11:16:58.399Z,63.32
2019-02-06T11:17:58.365Z,62.68
2019-02-06T11:18:58.342Z,62.54
2019-02-06T11:19:58.347Z,63.17
2019-02-06T11:20:58.320Z,61.38
2019-02-06T11:21:58.314Z,61.15
2019-02-06T11:22:58.307Z,60.22
2019-02-06T11:23:58.344Z,62.10
2019-02-06T11:24:58.281Z,61.56
2019-02-06T11:25:58.274Z,61.59
2019-02-06T11:26:58.268Z,61.38
2019-02-06T11:27:58.246Z,61.46
2019-02-06T11:28:58.245Z,60.46
2019-02-06T11:29:58.231Z,61.38
2019-02-06T11:30:58.219Z,60.05
2019-02-06T11:31:58.203Z,60.07
2019-02-06T11:32:58.199Z,61.31
2019-02-06T11:33:58.188Z,61.07
2019-02-06T11:34:58.178Z,61.41
2019-02-06T11:35:58.159Z,61.65
2019-02-06T11:36:58.147Z,61.96
2019-02-06T11:37:58.133Z,61.52
2019-02-06T11:38:58.128Z,61.54
2019-02-06T11:39:58.394Z,61.44
2019-02-06T11:40:58.105Z,61.75
2019-02-06T11:41:58.093Z,61.65
2019-02-06T11:42:58.395Z,62.16
2019-02-06T11:43:58.076Z,61.82
2019-02-06T11:44:58.066Z,61.41
2019-02-06T11:45:58.104Z,61.44
2019-02-06T11:46:58.040Z,61.54
2019-02-06T11:47:58.056Z,61.85
2019-02-06T11:48:58.024Z,62.37
2019-02-06T11:49:58.019Z,62.16
2019-02-06T11:50:58.003Z,62.78
2019-02-06T11:51:58.005Z,61.85
2019-02-06T11:52:57.979Z,62.47
2019-02-06T11:53:57.995Z,62.40
2019-02-06T11:54:57.960Z,63.01
2019-02-06T11:55:57.952Z,62.71
2019-02-06T11:56:57.945Z,63.01
2019-02-06T11:57:57.927Z,62.92
2019-02-06T11:58:57.918Z,63.25
2019-02-06T11:59:57.903Z,63.25
2019-02-06T12:00:57.895Z,63.77
2019-02-06T12:01:57.884Z,63.25
2019-02-06T12:02:57.878Z,63.25
2019-02-06T12:03:57.895Z,63.46
2019-02-06T12:04:57.849Z,63.46
2019-02-06T12:05:57.846Z,63.87
2019-02-06T12:06:57.821Z,63.43
2019-02-06T12:07:57.825Z,63.50
2019-02-06T12:08:57.816Z,62.47
2019-02-06T12:10:08.998Z,62.88
2019-02-06T12:10:58.786Z,62.78
2019-02-06T12:11:57.772Z,62.24
2019-02-06T12:12:57.761Z,62.92
2019-02-06T12:13:57.753Z,63.53
2019-02-06T12:14:57.735Z,63.84
2019-02-06T12:15:57.722Z,63.01
2019-02-06T12:16:57.713Z,63.43
2019-02-06T12:17:57.713Z,63.43
2019-02-06T12:18:57.713Z,63.22
2019-02-06T12:19:57.693Z,63.97
2019-02-06T12:20:57.670Z,63.95
2019-02-06T12:21:57.664Z,63.64
2019-02-06T12:22:57.659Z,63.32
2019-02-06T12:23:57.638Z,63.43
2019-02-06T12:24:57.634Z,63.64
2019-02-06T12:25:57.617Z,63.53
2019-02-06T12:26:57.614Z,63.50
2019-02-06T12:27:57.589Z,63.64
2019-02-06T12:28:57.583Z,63.12
2019-02-06T12:29:57.585Z,63.32
2019-02-06T12:30:57.590Z,63.53
2019-02-06T12:31:57.555Z,63.84
2019-02-06T12:32:57.547Z,63.71
2019-02-06T12:33:57.555Z,63.19
2019-02-06T12:34:57.520Z,63.71
2019-02-06T12:35:57.509Z,63.19
2019-02-06T12:36:57.538Z,63.40
2019-02-06T12:37:57.600Z,63.22
2019-02-06T12:38:57.478Z,63.64
2019-02-06T12:39:57.461Z,63.12
2019-02-06T12:40:57.458Z,63.43
2019-02-06T12:41:57.464Z,63.43
2019-02-06T12:42:57.431Z,63.95
2019-02-06T12:43:57.422Z,63.01
2019-02-06T12:44:59.071Z,63.22
2019-02-06T12:45:57.414Z,63.53
2019-02-06T12:46:57.396Z,64.25
2019-02-06T12:47:57.391Z,64.25
2019-02-06T12:48:57.369Z,63.84
2019-02-06T12:49:57.351Z,64.25
2019-02-06T12:50:57.346Z,63.53
2019-02-06T12:51:57.330Z,64.04